Time;durP1;ratioP1;P1;durP2;ratioP2;P2;SDS_P1;SDS_P2;PMS_P1;PMS_P2;Temp;Humidity;BMP_temperature;BMP_pressure;BME280_temperature;BME280_humidity;BME280_pressure;Samples;Min_cycle;Max_cycle;Signal;HPM_P1;HPM_P2
2021/01/06 00:00:04;;;;;;;40.60001;15.9;;;;;;;-0.33;81.38574;94457.19;;;;
2021/01/06 00:01:09;;;;;;;40.60001;15.9;;;;;;;-0.33;81.38574;94457.19;;;;
2021/01/06 00:02:10;;;;;;;40.60001;15.9;;;;;;;-0.33;81.38574;94457.19;;;;
2021/01/06 00:03:10;;;;;;;40.60001;15.9;;;;;;;-0.33;81.38574;94457.19;;;;
2021/01/06 00:04:12;;;;;;;40.60001;15.9;;;;;;;-0.33;81.38574;94457.19;;;;
2021/01/06 00:05:13;;;;;;;40.60001;15.9;;;;;;;-0.33;81.38574;94457.19;;;;
2021/01/06 00:06:16;;;;;;;40.60001;15.9;;;;;;;-0.33;81.38574;94457.19;;;;
2021/01/06 00:07:22;;;;;;;41.15;16.8;;;;;;;-0.35;81.41406;94453.91;;;;
2021/01/06 00:08:23;;;;;;;41.15;16.8;;;;;;;-0.35;81.41406;94453.91;;;;
2021/01/06 00:09:24;;;;;;;41.15;16.8;;;;;;;-0.35;81.41406;94453.91;;;;
2021/01/06 00:10:25;;;;;;;41.15;16.8;;;;;;;-0.35;81.41406;94453.91;;;;
2021/01/06 00:11:26;;;;;;;41.15;16.8;;;;;;;-0.35;81.41406;94453.91;;;;
2021/01/06 00:12:31;;;;;;;41.15;16.8;;;;;;;-0.35;81.41406;94453.91;;;;
2021/01/06 00:13:32;;;;;;;41.15;16.8;;;;;;;-0.35;81.41406;94453.91;;;;
2021/01/06 00:14:32;;;;;;;41.15;16.8;;;;;;;-0.35;81.41406;94453.91;;;;
2021/01/06 00:15:33;;;;;;;41.15;16.8;;;;;;;-0.35;81.41406;94453.91;;;;
2021/01/06 00:16:36;;;;;;;41.15;16.8;;;;;;;-0.35;81.41406;94453.91;;;;
2021/01/06 00:17:37;;;;;;;41.15;16.8;;;;;;;-0.35;81.41406;94453.91;;;;
2021/01/06 00:18:37;;;;;;;44.75;16.85;;;;;;;-0.45;81.45508;94461.86;;;;
2021/01/06 00:19:38;;;;;;;44.75;16.85;;;;;;;-0.45;81.45508;94461.86;;;;
2021/01/06 00:20:38;;;;;;;44.75;16.85;;;;;;;-0.45;81.45508;94461.86;;;;
2021/01/06 00:21:39;;;;;;;44.75;16.85;;;;;;;-0.45;81.45508;94461.86;;;;
2021/01/06 00:22:39;;;;;;;44.75;16.85;;;;;;;-0.45;81.45508;94461.86;;;;
2021/01/06 00:23:41;;;;;;;44.75;16.85;;;;;;;-0.45;81.45508;94461.86;;;;
2021/01/06 00:24:41;;;;;;;44.75;16.85;;;;;;;-0.45;81.45508;94461.86;;;;
2021/01/06 00:25:42;;;;;;;44.75;16.85;;;;;;;-0.45;81.45508;94461.86;;;;
2021/01/06 00:26:42;;;;;;;44.75;16.85;;;;;;;-0.45;81.45508;94461.86;;;;
2021/01/06 00:27:43;;;;;;;44.75;16.85;;;;;;;-0.45;81.45508;94461.86;;;;
2021/01/06 00:28:44;;;;;;;40.75;17.05;;;;;;;-0.52;81.66211;94455.56;;;;
2021/01/06 00:29:44;;;;;;;40.75;17.05;;;;;;;-0.52;81.66211;94455.56;;;;
2021/01/06 00:30:45;;;;;;;40.75;17.05;;;;;;;-0.52;81.66211;94455.56;;;;
2021/01/06 00:31:48;;;;;;;40.75;17.05;;;;;;;-0.52;81.66211;94455.56;;;;
2021/01/06 00:32:48;;;;;;;40.75;17.05;;;;;;;-0.52;81.66211;94455.56;;;;
2021/01/06 00:33:49;;;;;;;40.75;17.05;;;;;;;-0.52;81.66211;94455.56;;;;
2021/01/06 00:34:49;;;;;;;40.75;17.05;;;;;;;-0.52;81.66211;94455.56;;;;
2021/01/06 00:35:50;;;;;;;40.75;17.05;;;;;;;-0.52;81.66211;94455.56;;;;
2021/01/06 00:36:52;;;;;;;40.75;17.05;;;;;;;-0.52;81.66211;94455.56;;;;
2021/01/06 00:37:57;;;;;;;40.75;17.05;;;;;;;-0.52;81.66211;94455.56;;;;
2021/01/06 00:38:57;;;;;;;40.75;17.05;;;;;;;-0.52;81.66211;94455.56;;;;
2021/01/06 00:39:58;;;;;;;43.15;17;;;;;;;-0.56;81.78809;94441.99;;;;
2021/01/06 00:40:58;;;;;;;43.15;17;;;;;;;-0.56;81.78809;94441.99;;;;
2021/01/06 00:41:59;;;;;;;43.15;17;;;;;;;-0.56;81.78809;94441.99;;;;
2021/01/06 00:42:59;;;;;;;43.15;17;;;;;;;-0.56;81.78809;94441.99;;;;
2021/01/06 00:44:03;;;;;;;43.15;17;;;;;;;-0.56;81.78809;94441.99;;;;
2021/01/06 00:45:04;;;;;;;43.15;17;;;;;;;-0.56;81.78809;94441.99;;;;
2021/01/06 00:46:08;;;;;;;43.15;17;;;;;;;-0.56;81.78809;94441.99;;;;
2021/01/06 00:47:08;;;;;;;43.15;17;;;;;;;-0.56;81.78809;94441.99;;;;
2021/01/06 00:48:09;;;;;;;43.15;17;;;;;;;-0.56;81.78809;94441.99;;;;
2021/01/06 00:49:10;;;;;;;43.15;17;;;;;;;-0.56;81.78809;94441.99;;;;
2021/01/06 00:50:11;;;;;;;50.49999;17.55;;;;;;;-0.6;81.91602;94450.9;;;;
2021/01/06 00:51:12;;;;;;;50.49999;17.55;;;;;;;-0.6;81.91602;94450.9;;;;
2021/01/06 00:52:13;;;;;;;50.49999;17.55;;;;;;;-0.6;81.91602;94450.9;;;;
2021/01/06 00:53:14;;;;;;;50.49999;17.55;;;;;;;-0.6;81.91602;94450.9;;;;
2021/01/06 00:54:16;;;;;;;50.49999;17.55;;;;;;;-0.6;81.91602;94450.9;;;;
2021/01/06 00:55:17;;;;;;;50.49999;17.55;;;;;;;-0.6;81.91602;94450.9;;;;
2021/01/06 00:56:18;;;;;;;50.49999;17.55;;;;;;;-0.6;81.91602;94450.9;;;;
2021/01/06 00:57:26;;;;;;;50.49999;17.55;;;;;;;-0.6;81.91602;94450.9;;;;
2021/01/06 00:58:27;;;;;;;50.49999;17.55;;;;;;;-0.6;81.91602;94450.9;;;;
2021/01/06 00:59:27;;;;;;;50.49999;17.55;;;;;;;-0.6;81.91602;94450.9;;;;
2021/01/06 01:00:28;;;;;;;50.49999;17.55;;;;;;;-0.6;81.91602;94450.9;;;;
2021/01/06 01:01:30;;;;;;;53.15;18.65;;;;;;;-0.65;81.92773;94437.4;;;;
2021/01/06 01:02:30;;;;;;;53.15;18.65;;;;;;;-0.65;81.92773;94437.4;;;;
2021/01/06 01:03:31;;;;;;;53.15;18.65;;;;;;;-0.65;81.92773;94437.4;;;;
2021/01/06 01:04:31;;;;;;;53.15;18.65;;;;;;;-0.65;81.92773;94437.4;;;;
2021/01/06 01:05:32;;;;;;;53.15;18.65;;;;;;;-0.65;81.92773;94437.4;;;;
2021/01/06 01:06:34;;;;;;;53.15;18.65;;;;;;;-0.65;81.92773;94437.4;;;;
2021/01/06 01:07:34;;;;;;;53.15;18.65;;;;;;;-0.65;81.92773;94437.4;;;;
2021/01/06 01:08:35;;;;;;;53.15;18.65;;;;;;;-0.65;81.92773;94437.4;;;;
2021/01/06 01:09:35;;;;;;;53.15;18.65;;;;;;;-0.65;81.92773;94437.4;;;;
2021/01/06 01:10:36;;;;;;;53.15;18.65;;;;;;;-0.65;81.92773;94437.4;;;;
2021/01/06 01:11:38;;;;;;;54.20001;19.5;;;;;;;-0.72;81.97754;94441.29;;;;
2021/01/06 01:12:39;;;;;;;54.20001;19.5;;;;;;;-0.72;81.97754;94441.29;;;;
2021/01/06 01:13:40;;;;;;;54.20001;19.5;;;;;;;-0.72;81.97754;94441.29;;;;
2021/01/06 01:14:40;;;;;;;54.20001;19.5;;;;;;;-0.72;81.97754;94441.29;;;;
2021/01/06 01:15:41;;;;;;;54.20001;19.5;;;;;;;-0.72;81.97754;94441.29;;;;
2021/01/06 01:16:46;;;;;;;54.20001;19.5;;;;;;;-0.72;81.97754;94441.29;;;;
2021/01/06 01:17:46;;;;;;;54.20001;19.5;;;;;;;-0.72;81.97754;94441.29;;;;
2021/01/06 01:18:47;;;;;;;54.20001;19.5;;;;;;;-0.72;81.97754;94441.29;;;;
2021/01/06 01:19:48;;;;;;;54.20001;19.5;;;;;;;-0.72;81.97754;94441.29;;;;
2021/01/06 01:20:49;;;;;;;54.20001;19.5;;;;;;;-0.72;81.97754;94441.29;;;;
2021/01/06 01:21:52;;;;;;;54.20001;19.5;;;;;;;-0.72;81.97754;94441.29;;;;
2021/01/06 01:22:52;;;;;;;62.44999;20.35;;;;;;;-0.8;82.24219;94431.73;;;;
2021/01/06 01:23:53;;;;;;;62.44999;20.35;;;;;;;-0.8;82.24219;94431.73;;;;
2021/01/06 01:24:53;;;;;;;62.44999;20.35;;;;;;;-0.8;82.24219;94431.73;;;;
2021/01/06 01:25:54;;;;;;;62.44999;20.35;;;;;;;-0.8;82.24219;94431.73;;;;
2021/01/06 01:26:55;;;;;;;62.44999;20.35;;;;;;;-0.8;82.24219;94431.73;;;;
2021/01/06 01:27:56;;;;;;;62.44999;20.35;;;;;;;-0.8;82.24219;94431.73;;;;
2021/01/06 01:28:56;;;;;;;62.44999;20.35;;;;;;;-0.8;82.24219;94431.73;;;;
2021/01/06 01:29:57;;;;;;;62.44999;20.35;;;;;;;-0.8;82.24219;94431.73;;;;
2021/01/06 01:30:57;;;;;;;62.44999;20.35;;;;;;;-0.8;82.24219;94431.73;;;;
2021/01/06 01:31:58;;;;;;;62.44999;20.35;;;;;;;-0.8;82.24219;94431.73;;;;
2021/01/06 01:32:58;;;;;;;57.74999;20.4;;;;;;;-0.84;82.37988;94423.35;;;;
2021/01/06 01:33:59;;;;;;;57.74999;20.4;;;;;;;-0.84;82.37988;94423.35;;;;
2021/01/06 01:35:00;;;;;;;57.74999;20.4;;;;;;;-0.84;82.37988;94423.35;;;;
2021/01/06 01:36:04;;;;;;;57.74999;20.4;;;;;;;-0.84;82.37988;94423.35;;;;
2021/01/06 01:37:05;;;;;;;57.74999;20.4;;;;;;;-0.84;82.37988;94423.35;;;;
2021/01/06 01:38:05;;;;;;;57.74999;20.4;;;;;;;-0.84;82.37988;94423.35;;;;
2021/01/06 01:39:06;;;;;;;57.74999;20.4;;;;;;;-0.84;82.37988;94423.35;;;;
2021/01/06 01:40:06;;;;;;;57.74999;20.4;;;;;;;-0.84;82.37988;94423.35;;;;
2021/01/06 01:41:09;;;;;;;57.74999;20.4;;;;;;;-0.84;82.37988;94423.35;;;;
2021/01/06 01:42:12;;;;;;;57.74999;20.4;;;;;;;-0.84;82.37988;94423.35;;;;
2021/01/06 01:43:13;;;;;;;57.74999;20.4;;;;;;;-0.84;82.37988;94423.35;;;;
2021/01/06 01:44:17;;;;;;;63.75;21.25;;;;;;;-0.83;82.54883;94431.21;;;;
2021/01/06 01:45:17;;;;;;;63.75;21.25;;;;;;;-0.83;82.54883;94431.21;;;;
2021/01/06 01:46:18;;;;;;;63.75;21.25;;;;;;;-0.83;82.54883;94431.21;;;;
2021/01/06 01:47:43;;;;;;;63.75;21.25;;;;;;;-0.83;82.54883;94431.21;;;;
2021/01/06 01:48:52;;;;;;;63.75;21.25;;;;;;;-0.83;82.54883;94431.21;;;;
2021/01/06 01:49:52;;;;;;;63.75;21.25;;;;;;;-0.83;82.54883;94431.21;;;;
2021/01/06 01:50:53;;;;;;;63.75;21.25;;;;;;;-0.83;82.54883;94431.21;;;;
2021/01/06 01:51:59;;;;;;;63.75;21.25;;;;;;;-0.83;82.54883;94431.21;;;;
2021/01/06 01:53:03;;;;;;;63.75;21.25;;;;;;;-0.83;82.54883;94431.21;;;;
2021/01/06 01:54:07;;;;;;;58.55;20.7;;;;;;;-0.86;82.69727;94429.83;;;;
2021/01/06 01:55:09;;;;;;;58.55;20.7;;;;;;;-0.86;82.69727;94429.83;;;;
2021/01/06 01:56:15;;;;;;;58.55;20.7;;;;;;;-0.86;82.69727;94429.83;;;;
2021/01/06 01:57:18;;;;;;;58.55;20.7;;;;;;;-0.86;82.69727;94429.83;;;;
2021/01/06 01:58:23;;;;;;;58.55;20.7;;;;;;;-0.86;82.69727;94429.83;;;;
2021/01/06 01:59:27;;;;;;;58.55;20.7;;;;;;;-0.86;82.69727;94429.83;;;;
2021/01/06 02:00:33;;;;;;;58.55;20.7;;;;;;;-0.86;82.69727;94429.83;;;;
2021/01/06 02:01:38;;;;;;;58.55;20.7;;;;;;;-0.86;82.69727;94429.83;;;;
2021/01/06 02:02:38;;;;;;;58.55;20.7;;;;;;;-0.86;82.69727;94429.83;;;;
2021/01/06 02:03:50;;;;;;;58.55;20.7;;;;;;;-0.86;82.69727;94429.83;;;;
2021/01/06 02:04:57;;;;;;;52.7;19.35;;;;;;;-0.91;82.6875;94428.25;;;;
2021/01/06 02:06:03;;;;;;;52.7;19.35;;;;;;;-0.91;82.6875;94428.25;;;;
2021/01/06 02:07:07;;;;;;;52.7;19.35;;;;;;;-0.91;82.6875;94428.25;;;;
2021/01/06 02:08:13;;;;;;;52.7;19.35;;;;;;;-0.91;82.6875;94428.25;;;;
2021/01/06 02:09:18;;;;;;;52.7;19.35;;;;;;;-0.91;82.6875;94428.25;;;;
2021/01/06 02:10:22;;;;;;;52.7;19.35;;;;;;;-0.91;82.6875;94428.25;;;;
2021/01/06 02:11:29;;;;;;;52.7;19.35;;;;;;;-0.91;82.6875;94428.25;;;;
2021/01/06 02:12:36;;;;;;;52.7;19.35;;;;;;;-0.91;82.6875;94428.25;;;;
2021/01/06 02:13:44;;;;;;;52.7;19.35;;;;;;;-0.91;82.6875;94428.25;;;;
2021/01/06 02:14:51;;;;;;;52.7;19.35;;;;;;;-0.91;82.6875;94428.25;;;;
2021/01/06 02:16:02;;;;;;;63.4;22.05;;;;;;;-0.87;83.00879;94419.75;;;;
2021/01/06 02:17:09;;;;;;;63.4;22.05;;;;;;;-0.87;83.00879;94419.75;;;;
2021/01/06 02:18:13;;;;;;;63.4;22.05;;;;;;;-0.87;83.00879;94419.75;;;;
2021/01/06 02:19:15;;;;;;;63.4;22.05;;;;;;;-0.87;83.00879;94419.75;;;;
2021/01/06 02:20:19;;;;;;;63.4;22.05;;;;;;;-0.87;83.00879;94419.75;;;;
2021/01/06 02:21:25;;;;;;;63.4;22.05;;;;;;;-0.87;83.00879;94419.75;;;;
2021/01/06 02:22:27;;;;;;;63.4;22.05;;;;;;;-0.87;83.00879;94419.75;;;;
2021/01/06 02:23:28;;;;;;;63.4;22.05;;;;;;;-0.87;83.00879;94419.75;;;;
2021/01/06 02:24:29;;;;;;;63.4;22.05;;;;;;;-0.87;83.00879;94419.75;;;;
2021/01/06 02:25:29;;;;;;;63.4;22.05;;;;;;;-0.87;83.00879;94419.75;;;;
2021/01/06 02:26:31;;;;;;;62.05;19.95;;;;;;;-0.9;82.94922;94416.25;;;;
2021/01/06 02:27:32;;;;;;;62.05;19.95;;;;;;;-0.9;82.94922;94416.25;;;;
2021/01/06 02:28:33;;;;;;;62.05;19.95;;;;;;;-0.9;82.94922;94416.25;;;;
2021/01/06 02:29:34;;;;;;;62.05;19.95;;;;;;;-0.9;82.94922;94416.25;;;;
2021/01/06 02:30:36;;;;;;;62.05;19.95;;;;;;;-0.9;82.94922;94416.25;;;;
2021/01/06 02:31:36;;;;;;;62.05;19.95;;;;;;;-0.9;82.94922;94416.25;;;;
2021/01/06 02:32:37;;;;;;;62.05;19.95;;;;;;;-0.9;82.94922;94416.25;;;;
2021/01/06 02:33:38;;;;;;;62.05;19.95;;;;;;;-0.9;82.94922;94416.25;;;;
2021/01/06 02:34:41;;;;;;;62.05;19.95;;;;;;;-0.9;82.94922;94416.25;;;;
2021/01/06 02:35:43;;;;;;;62.05;19.95;;;;;;;-0.9;82.94922;94416.25;;;;
2021/01/06 02:36:43;;;;;;;54.75001;20.65;;;;;;;-0.86;83.0918;94412.22;;;;
2021/01/06 02:37:44;;;;;;;54.75001;20.65;;;;;;;-0.86;83.0918;94412.22;;;;
2021/01/06 02:38:44;;;;;;;54.75001;20.65;;;;;;;-0.86;83.0918;94412.22;;;;
2021/01/06 02:39:45;;;;;;;54.75001;20.65;;;;;;;-0.86;83.0918;94412.22;;;;
2021/01/06 02:40:46;;;;;;;54.75001;20.65;;;;;;;-0.86;83.0918;94412.22;;;;
2021/01/06 02:41:47;;;;;;;54.75001;20.65;;;;;;;-0.86;83.0918;94412.22;;;;
2021/01/06 02:42:48;;;;;;;54.75001;20.65;;;;;;;-0.86;83.0918;94412.22;;;;
2021/01/06 02:43:49;;;;;;;54.75001;20.65;;;;;;;-0.86;83.0918;94412.22;;;;
2021/01/06 02:44:50;;;;;;;54.75001;20.65;;;;;;;-0.86;83.0918;94412.22;;;;
2021/01/06 02:45:51;;;;;;;54.75001;20.65;;;;;;;-0.86;83.0918;94412.22;;;;
2021/01/06 02:46:52;;;;;;;54.75001;20.65;;;;;;;-0.86;83.0918;94412.22;;;;
2021/01/06 02:47:54;;;;;;;59.85;22.55;;;;;;;-0.85;83.0957;94407.14;;;;
2021/01/06 02:48:54;;;;;;;59.85;22.55;;;;;;;-0.85;83.0957;94407.14;;;;
2021/01/06 02:49:55;;;;;;;59.85;22.55;;;;;;;-0.85;83.0957;94407.14;;;;
2021/01/06 02:50:56;;;;;;;59.85;22.55;;;;;;;-0.85;83.0957;94407.14;;;;
2021/01/06 02:52:01;;;;;;;59.85;22.55;;;;;;;-0.85;83.0957;94407.14;;;;
2021/01/06 02:53:11;;;;;;;59.85;22.55;;;;;;;-0.85;83.0957;94407.14;;;;
2021/01/06 02:54:16;;;;;;;59.85;22.55;;;;;;;-0.85;83.0957;94407.14;;;;
2021/01/06 02:55:22;;;;;;;59.85;22.55;;;;;;;-0.85;83.0957;94407.14;;;;
2021/01/06 02:56:25;;;;;;;59.85;22.55;;;;;;;-0.85;83.0957;94407.14;;;;
2021/01/06 02:57:26;;;;;;;59.85;22.55;;;;;;;-0.85;83.0957;94407.14;;;;
2021/01/06 02:58:27;;;;;;;61.9;20.7;;;;;;;-0.85;83.25098;94403.17;;;;
2021/01/06 02:59:29;;;;;;;61.9;20.7;;;;;;;-0.85;83.25098;94403.17;;;;
2021/01/06 03:00:38;;;;;;;61.9;20.7;;;;;;;-0.85;83.25098;94403.17;;;;
2021/01/06 03:01:39;;;;;;;61.9;20.7;;;;;;;-0.85;83.25098;94403.17;;;;
2021/01/06 03:02:42;;;;;;;61.9;20.7;;;;;;;-0.85;83.25098;94403.17;;;;
2021/01/06 03:03:43;;;;;;;61.9;20.7;;;;;;;-0.85;83.25098;94403.17;;;;
2021/01/06 03:04:45;;;;;;;61.9;20.7;;;;;;;-0.85;83.25098;94403.17;;;;
2021/01/06 03:05:48;;;;;;;61.9;20.7;;;;;;;-0.85;83.25098;94403.17;;;;
2021/01/06 03:07:03;;;;;;;61.9;20.7;;;;;;;-0.85;83.25098;94403.17;;;;
2021/01/06 03:08:06;;;;;;;61.9;20.7;;;;;;;-0.85;83.25098;94403.17;;;;
2021/01/06 03:09:10;;;;;;;56.75001;21.2;;;;;;;-0.91;83.21777;94403.91;;;;
2021/01/06 03:10:23;;;;;;;56.75001;21.2;;;;;;;-0.91;83.21777;94403.91;;;;
2021/01/06 03:11:24;;;;;;;56.75001;21.2;;;;;;;-0.91;83.21777;94403.91;;;;
2021/01/06 03:12:25;;;;;;;56.75001;21.2;;;;;;;-0.91;83.21777;94403.91;;;;
2021/01/06 03:13:28;;;;;;;56.75001;21.2;;;;;;;-0.91;83.21777;94403.91;;;;
2021/01/06 03:14:29;;;;;;;56.75001;21.2;;;;;;;-0.91;83.21777;94403.91;;;;
2021/01/06 03:15:32;;;;;;;56.75001;21.2;;;;;;;-0.91;83.21777;94403.91;;;;
2021/01/06 03:16:33;;;;;;;56.75001;21.2;;;;;;;-0.91;83.21777;94403.91;;;;
2021/01/06 03:17:33;;;;;;;56.75001;21.2;;;;;;;-0.91;83.21777;94403.91;;;;
2021/01/06 03:18:34;;;;;;;56.75001;21.2;;;;;;;-0.91;83.21777;94403.91;;;;
2021/01/06 03:19:35;;;;;;;54.59999;21;;;;;;;-0.96;83.52051;94400.18;;;;
2021/01/06 03:20:41;;;;;;;54.59999;21;;;;;;;-0.96;83.52051;94400.18;;;;
2021/01/06 03:21:43;;;;;;;54.59999;21;;;;;;;-0.96;83.52051;94400.18;;;;
2021/01/06 03:22:46;;;;;;;54.59999;21;;;;;;;-0.96;83.52051;94400.18;;;;
2021/01/06 03:23:51;;;;;;;54.59999;21;;;;;;;-0.96;83.52051;94400.18;;;;
2021/01/06 03:24:54;;;;;;;54.59999;21;;;;;;;-0.96;83.52051;94400.18;;;;
2021/01/06 03:25:59;;;;;;;54.59999;21;;;;;;;-0.96;83.52051;94400.18;;;;
2021/01/06 03:27:04;;;;;;;54.59999;21;;;;;;;-0.96;83.52051;94400.18;;;;
2021/01/06 03:28:05;;;;;;;54.59999;21;;;;;;;-0.96;83.52051;94400.18;;;;
2021/01/06 03:29:06;;;;;;;54.59999;21;;;;;;;-0.96;83.52051;94400.18;;;;
2021/01/06 03:30:08;;;;;;;52.5;18.9;;;;;;;-0.92;84.15039;94398.8;;;;
2021/01/06 03:31:13;;;;;;;52.5;18.9;;;;;;;-0.92;84.15039;94398.8;;;;
2021/01/06 03:32:19;;;;;;;52.5;18.9;;;;;;;-0.92;84.15039;94398.8;;;;
2021/01/06 03:33:27;;;;;;;52.5;18.9;;;;;;;-0.92;84.15039;94398.8;;;;
2021/01/06 03:34:33;;;;;;;52.5;18.9;;;;;;;-0.92;84.15039;94398.8;;;;
2021/01/06 03:35:41;;;;;;;52.5;18.9;;;;;;;-0.92;84.15039;94398.8;;;;
2021/01/06 03:36:45;;;;;;;52.5;18.9;;;;;;;-0.92;84.15039;94398.8;;;;
2021/01/06 03:37:52;;;;;;;52.5;18.9;;;;;;;-0.92;84.15039;94398.8;;;;
2021/01/06 03:38:58;;;;;;;52.5;18.9;;;;;;;-0.92;84.15039;94398.8;;;;
2021/01/06 03:40:02;;;;;;;52.5;18.9;;;;;;;-0.92;84.15039;94398.8;;;;
2021/01/06 03:41:10;;;;;;;56.8;21;;;;;;;-0.89;83.67871;94391.38;;;;
2021/01/06 03:42:11;;;;;;;56.8;21;;;;;;;-0.89;83.67871;94391.38;;;;
2021/01/06 03:43:13;;;;;;;56.8;21;;;;;;;-0.89;83.67871;94391.38;;;;
2021/01/06 03:44:16;;;;;;;56.8;21;;;;;;;-0.89;83.67871;94391.38;;;;
2021/01/06 03:45:17;;;;;;;56.8;21;;;;;;;-0.89;83.67871;94391.38;;;;
2021/01/06 03:46:23;;;;;;;56.8;21;;;;;;;-0.89;83.67871;94391.38;;;;
2021/01/06 03:47:30;;;;;;;56.8;21;;;;;;;-0.89;83.67871;94391.38;;;;
2021/01/06 03:48:37;;;;;;;56.8;21;;;;;;;-0.89;83.67871;94391.38;;;;
2021/01/06 03:49:46;;;;;;;56.8;21;;;;;;;-0.89;83.67871;94391.38;;;;
2021/01/06 03:50:54;;;;;;;56.8;21;;;;;;;-0.89;83.67871;94391.38;;;;
2021/01/06 03:52:01;;;;;;;52.05;19.85;;;;;;;-0.89;83.71973;94388.73;;;;
2021/01/06 03:53:09;;;;;;;52.05;19.85;;;;;;;-0.89;83.71973;94388.73;;;;
2021/01/06 03:54:22;;;;;;;52.05;19.85;;;;;;;-0.89;83.71973;94388.73;;;;
2021/01/06 03:55:29;;;;;;;52.05;19.85;;;;;;;-0.89;83.71973;94388.73;;;;
2021/01/06 03:56:50;;;;;;;52.05;19.85;;;;;;;-0.89;83.71973;94388.73;;;;
2021/01/06 03:57:53;;;;;;;52.05;19.85;;;;;;;-0.89;83.71973;94388.73;;;;
2021/01/06 03:58:59;;;;;;;52.05;19.85;;;;;;;-0.89;83.71973;94388.73;;;;
2021/01/06 04:00:05;;;;;;;52.05;19.85;;;;;;;-0.89;83.71973;94388.73;;;;
2021/01/06 04:01:08;;;;;;;52.05;19.85;;;;;;;-0.89;83.71973;94388.73;;;;
2021/01/06 04:02:32;;;;;;;52.85;20.15;;;;;;;-0.89;83.67871;94380.78;;;;
2021/01/06 04:03:41;;;;;;;52.85;20.15;;;;;;;-0.89;83.67871;94380.78;;;;
2021/01/06 04:04:53;;;;;;;52.85;20.15;;;;;;;-0.89;83.67871;94380.78;;;;
2021/01/06 04:05:59;;;;;;;52.85;20.15;;;;;;;-0.89;83.67871;94380.78;;;;
2021/01/06 04:07:02;;;;;;;52.85;20.15;;;;;;;-0.89;83.67871;94380.78;;;;
2021/01/06 04:08:06;;;;;;;52.85;20.15;;;;;;;-0.89;83.67871;94380.78;;;;
2021/01/06 04:09:08;;;;;;;52.85;20.15;;;;;;;-0.89;83.67871;94380.78;;;;
2021/01/06 04:10:20;;;;;;;52.85;20.15;;;;;;;-0.89;83.67871;94380.78;;;;
2021/01/06 04:11:24;;;;;;;52.85;20.15;;;;;;;-0.89;83.67871;94380.78;;;;
2021/01/06 04:12:31;;;;;;;52.85;20.15;;;;;;;-0.89;83.67871;94380.78;;;;
2021/01/06 04:13:32;;;;;;;50.09999;19.5;;;;;;;-0.91;83.90332;94379.66;;;;
2021/01/06 04:14:33;;;;;;;50.09999;19.5;;;;;;;-0.91;83.90332;94379.66;;;;
2021/01/06 04:15:34;;;;;;;50.09999;19.5;;;;;;;-0.91;83.90332;94379.66;;;;
2021/01/06 04:16:34;;;;;;;50.09999;19.5;;;;;;;-0.91;83.90332;94379.66;;;;
2021/01/06 04:17:35;;;;;;;50.09999;19.5;;;;;;;-0.91;83.90332;94379.66;;;;
2021/01/06 04:18:39;;;;;;;50.09999;19.5;;;;;;;-0.91;83.90332;94379.66;;;;
2021/01/06 04:19:39;;;;;;;50.09999;19.5;;;;;;;-0.91;83.90332;94379.66;;;;
2021/01/06 04:20:43;;;;;;;50.09999;19.5;;;;;;;-0.91;83.90332;94379.66;;;;
2021/01/06 04:21:44;;;;;;;50.09999;19.5;;;;;;;-0.91;83.90332;94379.66;;;;
2021/01/06 04:22:44;;;;;;;50.09999;19.5;;;;;;;-0.91;83.90332;94379.66;;;;
2021/01/06 04:23:47;;;;;;;54.5;19.65;;;;;;;-0.9;83.87402;94376.51;;;;
2021/01/06 04:24:48;;;;;;;54.5;19.65;;;;;;;-0.9;83.87402;94376.51;;;;
2021/01/06 04:25:49;;;;;;;54.5;19.65;;;;;;;-0.9;83.87402;94376.51;;;;
2021/01/06 04:26:49;;;;;;;54.5;19.65;;;;;;;-0.9;83.87402;94376.51;;;;
2021/01/06 04:27:50;;;;;;;54.5;19.65;;;;;;;-0.9;83.87402;94376.51;;;;
2021/01/06 04:28:54;;;;;;;54.5;19.65;;;;;;;-0.9;83.87402;94376.51;;;;
2021/01/06 04:29:54;;;;;;;54.5;19.65;;;;;;;-0.9;83.87402;94376.51;;;;
2021/01/06 04:30:55;;;;;;;54.5;19.65;;;;;;;-0.9;83.87402;94376.51;;;;
2021/01/06 04:31:57;;;;;;;54.5;19.65;;;;;;;-0.9;83.87402;94376.51;;;;
2021/01/06 04:32:58;;;;;;;54.5;19.65;;;;;;;-0.9;83.87402;94376.51;;;;
2021/01/06 04:34:00;;;;;;;54.5;19.65;;;;;;;-0.9;83.87402;94376.51;;;;
2021/01/06 04:35:00;;;;;;;50.8;19.25;;;;;;;-0.98;83.91113;94369.9;;;;
2021/01/06 04:36:01;;;;;;;50.8;19.25;;;;;;;-0.98;83.91113;94369.9;;;;
2021/01/06 04:37:05;;;;;;;50.8;19.25;;;;;;;-0.98;83.91113;94369.9;;;;
2021/01/06 04:38:06;;;;;;;50.8;19.25;;;;;;;-0.98;83.91113;94369.9;;;;
2021/01/06 04:39:07;;;;;;;50.8;19.25;;;;;;;-0.98;83.91113;94369.9;;;;
2021/01/06 04:40:07;;;;;;;50.8;19.25;;;;;;;-0.98;83.91113;94369.9;;;;
2021/01/06 04:41:09;;;;;;;50.8;19.25;;;;;;;-0.98;83.91113;94369.9;;;;
2021/01/06 04:42:24;;;;;;;50.8;19.25;;;;;;;-0.98;83.91113;94369.9;;;;
2021/01/06 04:43:27;;;;;;;50.8;19.25;;;;;;;-0.98;83.91113;94369.9;;;;
2021/01/06 04:44:41;;;;;;;50.8;19.25;;;;;;;-0.98;83.91113;94369.9;;;;
2021/01/06 04:45:57;;;;;;;57.3;20.95;;;;;;;-1.03;84.12988;94368.83;;;;
2021/01/06 04:47:23;;;;;;;57.3;20.95;;;;;;;-1.03;84.12988;94368.83;;;;
2021/01/06 04:48:58;;;;;;;57.3;20.95;;;;;;;-1.03;84.12988;94368.83;;;;
2021/01/06 04:50:06;;;;;;;57.3;20.95;;;;;;;-1.03;84.12988;94368.83;;;;
2021/01/06 04:51:30;;;;;;;57.3;20.95;;;;;;;-1.03;84.12988;94368.83;;;;
2021/01/06 04:52:47;;;;;;;57.3;20.95;;;;;;;-1.03;84.12988;94368.83;;;;
2021/01/06 04:54:01;;;;;;;57.3;20.95;;;;;;;-1.03;84.12988;94368.83;;;;
2021/01/06 04:55:16;;;;;;;57.3;20.95;;;;;;;-1.03;84.12988;94368.83;;;;
2021/01/06 04:56:29;;;;;;;57.80001;21.05;;;;;;;-1.05;84.45703;94375.23;;;;
2021/01/06 04:57:43;;;;;;;57.80001;21.05;;;;;;;-1.05;84.45703;94375.23;;;;
2021/01/06 04:58:53;;;;;;;57.80001;21.05;;;;;;;-1.05;84.45703;94375.23;;;;
2021/01/06 05:00:02;;;;;;;57.80001;21.05;;;;;;;-1.05;84.45703;94375.23;;;;
2021/01/06 05:01:16;;;;;;;57.80001;21.05;;;;;;;-1.05;84.45703;94375.23;;;;
2021/01/06 05:02:31;;;;;;;57.80001;21.05;;;;;;;-1.05;84.45703;94375.23;;;;
2021/01/06 05:03:55;;;;;;;57.80001;21.05;;;;;;;-1.05;84.45703;94375.23;;;;
2021/01/06 05:05:11;;;;;;;57.80001;21.05;;;;;;;-1.05;84.45703;94375.23;;;;
2021/01/06 05:06:38;;;;;;;56.20001;19.4;;;;;;;-1.07;84.56738;94368.39;;;;
2021/01/06 05:07:46;;;;;;;56.20001;19.4;;;;;;;-1.07;84.56738;94368.39;;;;
2021/01/06 05:08:58;;;;;;;56.20001;19.4;;;;;;;-1.07;84.56738;94368.39;;;;
2021/01/06 05:10:09;;;;;;;56.20001;19.4;;;;;;;-1.07;84.56738;94368.39;;;;
2021/01/06 05:11:24;;;;;;;56.20001;19.4;;;;;;;-1.07;84.56738;94368.39;;;;
2021/01/06 05:12:30;;;;;;;56.20001;19.4;;;;;;;-1.07;84.56738;94368.39;;;;
2021/01/06 05:13:34;;;;;;;56.20001;19.4;;;;;;;-1.07;84.56738;94368.39;;;;
2021/01/06 05:14:41;;;;;;;56.20001;19.4;;;;;;;-1.07;84.56738;94368.39;;;;
2021/01/06 05:15:49;;;;;;;56.20001;19.4;;;;;;;-1.07;84.56738;94368.39;;;;
2021/01/06 05:16:56;;;;;;;55.15;20.45;;;;;;;-1.09;84.65918;94368.17;;;;
2021/01/06 05:17:57;;;;;;;55.15;20.45;;;;;;;-1.09;84.65918;94368.17;;;;
2021/01/06 05:18:58;;;;;;;55.15;20.45;;;;;;;-1.09;84.65918;94368.17;;;;
2021/01/06 05:19:59;;;;;;;55.15;20.45;;;;;;;-1.09;84.65918;94368.17;;;;
2021/01/06 05:21:00;;;;;;;55.15;20.45;;;;;;;-1.09;84.65918;94368.17;;;;
2021/01/06 05:22:01;;;;;;;55.15;20.45;;;;;;;-1.09;84.65918;94368.17;;;;
2021/01/06 05:23:05;;;;;;;55.15;20.45;;;;;;;-1.09;84.65918;94368.17;;;;
2021/01/06 05:24:15;;;;;;;55.15;20.45;;;;;;;-1.09;84.65918;94368.17;;;;
2021/01/06 05:25:22;;;;;;;55.15;20.45;;;;;;;-1.09;84.65918;94368.17;;;;
2021/01/06 05:26:22;;;;;;;55.15;20.45;;;;;;;-1.09;84.65918;94368.17;;;;
2021/01/06 05:27:23;;;;;;;55.15;20.45;;;;;;;-1.09;84.65918;94368.17;;;;
2021/01/06 05:28:26;;;;;;;55.7;19.4;;;;;;;-1.09;84.78125;94371.73;;;;
2021/01/06 05:29:27;;;;;;;55.7;19.4;;;;;;;-1.09;84.78125;94371.73;;;;
2021/01/06 05:30:29;;;;;;;55.7;19.4;;;;;;;-1.09;84.78125;94371.73;;;;
2021/01/06 05:31:34;;;;;;;55.7;19.4;;;;;;;-1.09;84.78125;94371.73;;;;
2021/01/06 05:32:34;;;;;;;55.7;19.4;;;;;;;-1.09;84.78125;94371.73;;;;
2021/01/06 05:33:38;;;;;;;55.7;19.4;;;;;;;-1.09;84.78125;94371.73;;;;
2021/01/06 05:34:43;;;;;;;55.7;19.4;;;;;;;-1.09;84.78125;94371.73;;;;
2021/01/06 05:35:46;;;;;;;55.7;19.4;;;;;;;-1.09;84.78125;94371.73;;;;
2021/01/06 05:36:47;;;;;;;55.7;19.4;;;;;;;-1.09;84.78125;94371.73;;;;
2021/01/06 05:37:49;;;;;;;55.7;19.4;;;;;;;-1.09;84.78125;94371.73;;;;
2021/01/06 05:38:53;;;;;;;45.34999;17.55;;;;;;;-1.01;85.16211;94380.47;;;;
2021/01/06 05:39:55;;;;;;;45.34999;17.55;;;;;;;-1.01;85.16211;94380.47;;;;
2021/01/06 05:41:00;;;;;;;45.34999;17.55;;;;;;;-1.01;85.16211;94380.47;;;;
2021/01/06 05:42:00;;;;;;;45.34999;17.55;;;;;;;-1.01;85.16211;94380.47;;;;
2021/01/06 05:43:21;;;;;;;45.34999;17.55;;;;;;;-1.01;85.16211;94380.47;;;;
2021/01/06 05:44:36;;;;;;;45.34999;17.55;;;;;;;-1.01;85.16211;94380.47;;;;
2021/01/06 05:45:36;;;;;;;45.34999;17.55;;;;;;;-1.01;85.16211;94380.47;;;;
2021/01/06 05:46:44;;;;;;;45.34999;17.55;;;;;;;-1.01;85.16211;94380.47;;;;
2021/01/06 05:47:47;;;;;;;45.34999;17.55;;;;;;;-1.01;85.16211;94380.47;;;;
2021/01/06 05:48:52;;;;;;;49.7;17.95;;;;;;;-0.98;85.04297;94383.15;;;;
2021/01/06 05:49:56;;;;;;;49.7;17.95;;;;;;;-0.98;85.04297;94383.15;;;;
2021/01/06 05:51:02;;;;;;;49.7;17.95;;;;;;;-0.98;85.04297;94383.15;;;;
2021/01/06 05:52:06;;;;;;;49.7;17.95;;;;;;;-0.98;85.04297;94383.15;;;;